Time,TemperatureF,DewpointF,PressureIn,WindDirection,WindDirectionDegrees,WindSpeedMPH,WindSpeedGustMPH,Humidity,HourlyPrecipIn,Conditions,Clouds,dailyrainin,SoftwareType,DateUTC
2013-03-24 00:00:00,25.9,16.8,27.18,East,88,0.0,5.0,68,0.00,,,-99.99,Weather View 32 v60,2013-03-24 04:00:00,
2013-03-24 00:20:00,25.1,17.0,27.18,East,88,0.0,3.0,71,0.00,,,-99.99,Weather View 32 v60,2013-03-24 04:20:00,
2013-03-24 00:40:00,25.2,17.1,27.17,East,88,0.0,2.0,71,0.00,,,-99.99,Weather View 32 v60,2013-03-24 04:40:00,
2013-03-24 01:00:00,24.0,16.6,27.17,East,85,2.0,2.0,73,0.00,,,-99.99,Weather View 32 v60,2013-03-24 05:00:00,
2013-03-24 01:20:00,23.6,16.2,27.15,East,85,0.0,4.0,73,0.00,,,-99.99,Weather View 32 v60,2013-03-24 05:20:00,
2013-03-24 01:40:00,23.3,16.9,27.16,East,86,2.0,4.0,76,0.00,,,-99.99,Weather View 32 v60,2013-03-24 05:40:00,
2013-03-24 02:00:00,24.0,16.6,27.15,ENE,72,0.0,5.0,73,0.00,,,-99.99,Weather View 32 v60,2013-03-24 06:00:00,
2013-03-24 02:20:00,23.8,16.7,27.16,East,79,0.0,5.0,74,0.00,,,-99.99,Weather View 32 v60,2013-03-24 06:20:00,
2013-03-24 02:40:00,24.3,16.6,27.15,ENE,66,2.0,5.0,72,0.00,,,-99.99,Weather View 32 v60,2013-03-24 06:40:00,
2013-03-24 03:00:00,24.5,16.1,27.14,ENE,63,5.0,6.0,70,0.00,,,-99.99,Weather View 32 v60,2013-03-24 07:00:00,
2013-03-24 03:20:00,23.7,15.7,27.14,ENE,74,2.0,6.0,71,0.00,,,-99.99,Weather View 32 v60,2013-03-24 07:20:00,
2013-03-24 03:40:00,23.7,16.0,27.14,East,98,0.0,6.0,72,0.00,,,-99.99,Weather View 32 v60,2013-03-24 07:40:00,
2013-03-24 04:00:00,24.2,16.8,27.15,SE,138,0.0,6.0,73,0.00,,,-99.99,Weather View 32 v60,2013-03-24 08:00:00,
2013-03-24 04:20:00,24.1,16.1,27.15,ESE,103,1.0,5.0,71,0.00,,,-99.99,Weather View 32 v60,2013-03-24 08:20:00,
2013-03-24 04:40:00,24.2,15.8,27.16,ESE,103,0.0,5.0,70,0.00,,,-99.99,Weather View 32 v60,2013-03-24 08:40:00,
2013-03-24 05:00:00,24.8,16.1,27.14,ESE,111,0.0,4.0,69,0.00,,,-99.99,Weather View 32 v60,2013-03-24 09:00:00,
2013-03-24 05:20:00,24.0,16.0,27.13,ENE,58,4.0,5.0,71,0.00,,,-99.99,Weather View 32 v60,2013-03-24 09:20:00,
2013-03-24 05:40:00,24.0,16.3,27.12,ENE,62,5.0,6.0,72,0.00,,,-99.99,Weather View 32 v60,2013-03-24 09:40:00,
2013-03-24 06:00:00,24.9,16.8,27.12,NE,50,3.0,7.0,71,0.00,,,-99.99,Weather View 32 v60,2013-03-24 10:00:00,
2013-03-24 06:20:00,24.6,16.5,27.12,NE,48,1.0,7.0,71,0.00,,,-99.99,Weather View 32 v60,2013-03-24 10:20:00,
2013-03-24 06:40:00,24.6,15.9,27.12,ENE,68,2.0,7.0,69,0.00,,,-99.99,Weather View 32 v60,2013-03-24 10:40:00,
2013-03-24 07:00:00,24.7,16.0,27.12,ENE,75,2.0,5.0,69,0.00,,,-99.99,Weather View 32 v60,2013-03-24 11:00:00,
2013-03-24 07:20:00,25.0,16.6,27.13,East,100,1.0,6.0,70,0.00,,,-99.99,Weather View 32 v60,2013-03-24 11:20:00,
2013-03-24 07:40:00,25.3,16.9,27.13,South,178,1.0,6.0,70,0.00,,,-99.99,Weather View 32 v60,2013-03-24 11:40:00,
2013-03-24 08:00:00,25.3,16.9,27.12,SW,224,1.0,7.0,70,0.00,,,-99.99,Weather View 32 v60,2013-03-24 12:00:00,
2013-03-24 08:20:00,26.0,17.2,27.11,ENE,71,2.0,7.0,69,0.00,,,-99.99,Weather View 32 v60,2013-03-24 12:20:00,
2013-03-24 08:40:00,27.0,17.5,27.10,ENE,69,1.0,8.0,67,0.00,,,-99.99,Weather View 32 v60,2013-03-24 12:40:00,
2013-03-24 09:00:00,27.7,16.7,27.09,SSW,199,2.0,9.0,63,0.00,,,-99.99,Weather View 32 v60,2013-03-24 13:00:00,
2013-03-24 09:20:00,28.3,16.6,27.09,South,179,5.0,11.0,61,0.00,,,-99.99,Weather View 32 v60,2013-03-24 13:20:00,
2013-03-24 09:40:00,29.2,16.3,27.07,ENE,76,4.0,12.0,58,0.00,,,-99.99,Weather View 32 v60,2013-03-24 13:40:00,
2013-03-24 10:00:00,29.3,15.9,27.06,SSW,192,6.0,13.0,57,0.00,,,-99.99,Weather View 32 v60,2013-03-24 14:00:00,
2013-03-24 10:20:00,29.2,16.3,27.06,South,174,11.0,13.0,58,0.00,,,-99.99,Weather View 32 v60,2013-03-24 14:20:00,
2013-03-24 10:40:00,29.4,17.2,27.05,South,184,4.0,13.0,60,0.00,,,-99.99,Weather View 32 v60,2013-03-24 14:40:00,
2013-03-24 11:00:00,29.3,17.1,27.02,SSW,198,7.0,16.0,60,0.00,,,-99.99,Weather View 32 v60,2013-03-24 15:00:00,
2013-03-24 11:20:00,30.3,17.7,27.02,WSW,248,0.0,16.0,59,0.00,,,-99.99,Weather View 32 v60,2013-03-24 15:20:00,
2013-03-24 11:40:00,30.2,15.5,27.02,South,176,12.0,19.0,54,0.00,,,-99.99,Weather View 32 v60,2013-03-24 15:40:00,
2013-03-24 12:00:00,29.9,15.3,27.00,South,189,11.0,21.0,54,0.00,,,-99.99,Weather View 32 v60,2013-03-24 16:00:00,
2013-03-24 12:20:00,30.5,14.5,26.98,South,182,6.0,21.0,51,0.00,,,-99.99,Weather View 32 v60,2013-03-24 16:20:00,
2013-03-24 12:40:00,30.7,15.6,26.97,South,172,11.0,21.0,53,0.00,,,-99.99,Weather View 32 v60,2013-03-24 16:40:00,
2013-03-24 13:00:00,30.0,16.6,26.95,South,175,12.0,20.0,57,0.00,,,-99.99,Weather View 32 v60,2013-03-24 17:00:00,
2013-03-24 13:20:00,29.9,17.7,26.94,SSW,210,7.0,21.0,60,0.00,,,-99.99,Weather View 32 v60,2013-03-24 17:20:00,
2013-03-24 13:40:00,30.2,17.6,26.93,SSW,202,5.0,22.0,59,0.00,,,-99.99,Weather View 32 v60,2013-03-24 17:40:00,
2013-03-24 14:00:00,31.6,17.7,26.92,SSW,192,6.0,22.0,56,0.00,,,-99.99,Weather View 32 v60,2013-03-24 18:00:00,
2013-03-24 14:20:00,31.1,17.6,26.92,South,175,12.0,22.0,57,0.00,,,-99.99,Weather View 32 v60,2013-03-24 18:20:00,
2013-03-24 14:40:00,30.7,18.5,26.92,South,175,13.0,19.0,60,0.00,,,-99.99,Weather View 32 v60,2013-03-24 18:40:00,
2013-03-24 15:00:00,30.6,17.6,26.91,SSW,197,8.0,19.0,58,0.00,,,-99.99,Weather View 32 v60,2013-03-24 19:00:00,
2013-03-24 15:20:00,31.1,18.8,26.91,South,189,9.0,18.0,60,0.00,,,-99.99,Weather View 32 v60,2013-03-24 19:20:00,
2013-03-24 15:40:00,31.3,18.6,26.90,South,181,7.0,19.0,59,0.00,,,-99.99,Weather View 32 v60,2013-03-24 19:40:00,
2013-03-24 16:00:00,30.0,21.1,26.90,South,174,10.0,19.0,69,0.00,,,-99.99,Weather View 32 v60,2013-03-24 20:00:00,
2013-03-24 16:20:00,28.4,22.7,26.89,South,188,7.0,19.0,79,0.00,,,-99.99,Weather View 32 v60,2013-03-24 20:20:00,
2013-03-24 16:40:00,28.6,23.5,26.88,SW,218,0.0,19.0,81,0.00,,,-99.99,Weather View 32 v60,2013-03-24 20:40:00,
2013-03-24 17:00:00,28.4,23.6,26.87,SW,215,3.0,15.0,82,0.00,,,-99.99,Weather View 32 v60,2013-03-24 21:00:00,
2013-03-24 17:20:00,28.5,23.7,26.86,NNE,19,3.0,12.0,82,0.01,,,-99.99,Weather View 32 v60,2013-03-24 21:20:00,
2013-03-24 17:40:00,28.1,23.3,26.86,WSW,252,2.0,10.0,82,0.01,,,-99.99,Weather View 32 v60,2013-03-24 21:40:00,
2013-03-24 17:41:00,28.1,23.3,26.86,WSW,252,2.0,10.0,82,0.01,,,-99.99,Weather View 32 v60,2013-03-24 21:41:00,
2013-03-24 18:00:00,27.4,23.2,26.85,West,270,3.0,13.0,84,0.01,,,-99.99,Weather View 32 v60,2013-03-24 22:00:00,
2013-03-24 18:20:00,26.9,23.0,26.85,South,185,8.0,16.0,85,0.00,,,-99.99,Weather View 32 v60,2013-03-24 22:20:00,
2013-03-24 18:40:00,26.5,22.9,26.85,South,185,11.0,21.0,86,0.00,,,-99.99,Weather View 32 v60,2013-03-24 22:40:00,
2013-03-24 19:00:00,26.4,22.5,26.84,South,191,8.0,21.0,85,0.00,,,-99.99,Weather View 32 v60,2013-03-24 23:00:00,
2013-03-24 19:20:00,26.4,22.5,26.84,SSW,194,6.0,21.0,85,0.00,,,-99.99,Weather View 32 v60,2013-03-24 23:20:00,
2013-03-24 19:40:00,26.2,22.6,26.83,SSW,198,8.0,19.0,86,0.00,,,-99.99,Weather View 32 v60,2013-03-24 23:40:00,
2013-03-24 19:42:00,26.2,22.6,26.83,SSW,198,8.0,19.0,86,0.00,,,-99.99,Weather View 32 v60,2013-03-24 23:42:00,
2013-03-24 20:00:00,26.0,22.4,26.83,South,179,9.0,21.0,86,0.00,,,-99.99,Weather View 32 v60,2013-03-25 00:00:00,
2013-03-24 20:20:00,26.0,22.4,26.82,WSW,241,6.0,21.0,86,0.00,,,-99.99,Weather View 32 v60,2013-03-25 00:20:00,
2013-03-24 20:40:00,26.0,22.4,26.81,South,177,15.0,21.0,86,0.00,,,-99.99,Weather View 32 v60,2013-03-25 00:40:00,
2013-03-24 20:42:00,26.0,22.4,26.81,South,177,15.0,21.0,86,0.00,,,-99.99,Weather View 32 v60,2013-03-25 00:42:00,
2013-03-24 21:00:00,25.9,22.3,26.81,SSW,193,11.0,22.0,86,0.00,,,-99.99,Weather View 32 v60,2013-03-25 01:00:00,
2013-03-24 21:20:00,25.9,22.6,26.81,SSW,196,8.0,25.0,87,0.00,,,-99.99,Weather View 32 v60,2013-03-25 01:20:00,
2013-03-24 21:40:00,26.0,22.7,26.81,SSW,194,11.0,25.0,87,0.00,,,-99.99,Weather View 32 v60,2013-03-25 01:40:00,
2013-03-24 21:43:00,26.0,22.7,26.81,SSW,194,11.0,25.0,87,0.00,,,-99.99,Weather View 32 v60,2013-03-25 01:43:00,
2013-03-24 22:00:00,26.0,22.4,26.80,SSW,193,12.0,25.0,86,0.00,,,-99.99,Weather View 32 v60,2013-03-25 02:00:00,
2013-03-24 22:20:00,26.0,22.4,26.80,SSW,194,11.0,23.0,86,0.00,,,-99.99,Weather View 32 v60,2013-03-25 02:20:00,
2013-03-24 22:40:00,25.9,22.6,26.79,SSW,193,9.0,26.0,87,0.00,,,-99.99,Weather View 32 v60,2013-03-25 02:40:00,
2013-03-24 22:43:00,25.9,22.6,26.79,SSW,193,9.0,26.0,87,0.00,,,-99.99,Weather View 32 v60,2013-03-25 02:43:00,
2013-03-24 23:00:00,25.9,22.6,26.78,SSW,208,11.0,26.0,87,0.00,,,-99.99,Weather View 32 v60,2013-03-25 03:00:00,
2013-03-24 23:20:00,25.8,22.5,26.76,SSW,195,5.0,26.0,87,0.00,,,-99.99,Weather View 32 v60,2013-03-25 03:20:00,
2013-03-24 23:40:00,25.8,22.2,26.76,SSW,199,11.0,23.0,86,0.00,,,-99.99,Weather View 32 v60,2013-03-25 03:40:00,
2013-03-24 23:44:00,25.8,22.2,26.76,SSW,199,11.0,23.0,86,0.00,,,-99.99,Weather View 32 v60,2013-03-25 03:44:00,